Time;durP1;ratioP1;P1;durP2;ratioP2;P2;SDS_P1;SDS_P2;PMS_P1;PMS_P2;Temp;Humidity;BMP_temperature;BMP_pressure;BME280_temperature;BME280_humidity;BME280_pressure;Samples;Min_cycle;Max_cycle;Signal;HPM_P1;HPM_P2
2022/06/29 00:01:47;;;;;;;5.85;2.30;;;15.80;99.90;;;;;;4961482;28;20564;-73
2022/06/29 00:04:13;;;;;;;3.97;1.40;;;15.80;99.90;;;;;;4974310;28;20081;-73
2022/06/29 00:06:38;;;;;;;4.47;1.30;;;15.80;99.90;;;;;;4976592;28;20128;-73
2022/06/29 00:09:04;;;;;;;4.13;1.23;;;15.80;99.90;;;;;;4975115;28;20038;-73
2022/06/29 00:11:30;;;;;;;5.95;2.95;;;15.70;99.90;;;;;;4959868;28;20054;-73
2022/06/29 00:13:56;;;;;;;4.43;1.27;;;15.70;99.90;;;;;;4980815;28;20046;-73
2022/06/29 00:16:21;;;;;;;5.65;1.90;;;15.70;99.90;;;;;;4977900;28;20033;-73
2022/06/29 00:18:47;;;;;;;3.10;1.33;;;15.70;99.90;;;;;;4958793;28;20074;-74
2022/06/29 00:21:13;;;;;;;3.83;1.25;;;15.70;99.90;;;;;;4974850;28;20058;-73
2022/06/29 00:23:39;;;;;;;3.65;1.70;;;15.60;99.90;;;;;;4974043;28;20038;-73
2022/06/29 00:26:04;;;;;;;4.03;1.15;;;15.60;99.90;;;;;;4975219;28;20133;-73
2022/06/29 00:28:30;;;;;;;2.90;1.10;;;15.60;99.90;;;;;;4973516;28;20704;-73
2022/06/29 00:30:56;;;;;;;4.07;1.77;;;15.60;99.90;;;;;;4958284;28;20046;-73
2022/06/29 00:33:21;;;;;;;3.47;1.60;;;15.60;99.90;;;;;;4957236;28;20042;-73
2022/06/29 00:35:47;;;;;;;4.85;1.40;;;15.50;99.90;;;;;;4976346;28;20030;-73
2022/06/29 00:38:13;;;;;;;2.33;1.33;;;15.50;99.90;;;;;;4973354;28;20045;-73
2022/06/29 00:40:40;;;;;;;6.25;1.80;;;15.50;99.90;;;;;;4975687;28;20437;-73
2022/06/29 00:43:05;;;;;;;4.90;1.60;;;15.40;99.90;;;;;;4957454;28;20045;-73
2022/06/29 00:45:31;;;;;;;5.22;1.63;;;15.50;99.90;;;;;;4978778;28;20546;-73
2022/06/29 00:47:57;;;;;;;4.60;1.60;;;15.40;99.90;;;;;;4978310;28;20034;-73
2022/06/29 00:50:28;;;;;;;3.78;1.63;;;15.40;99.90;;;;;;4963772;28;20058;-73
2022/06/29 00:52:57;;;;;;;6.55;1.60;;;15.40;99.90;;;;;;4974138;28;20057;-73
2022/06/29 00:55:25;;;;;;;4.30;1.55;;;15.30;99.90;;;;;;4976375;28;20132;-73
2022/06/29 00:57:54;;;;;;;2.65;1.50;;;15.30;99.90;;;;;;4974332;28;20630;-73
2022/06/29 01:00:20;;;;;;;5.82;1.70;;;15.30;99.90;;;;;;4976160;28;20046;-73
2022/06/29 01:02:46;;;;;;;4.82;1.67;;;15.20;99.90;;;;;;4973857;28;20047;-73
2022/06/29 01:05:12;;;;;;;2.97;1.80;;;15.20;99.90;;;;;;4975667;28;20034;-73
2022/06/29 01:07:38;;;;;;;5.70;1.80;;;15.20;99.90;;;;;;4973287;28;20046;-73
2022/06/29 01:10:04;;;;;;;3.47;1.58;;;15.20;99.90;;;;;;4976494;28;20046;-73
2022/06/29 01:12:30;;;;;;;4.60;2.00;;;15.10;99.90;;;;;;4974857;28;20038;-73
2022/06/29 01:14:56;;;;;;;3.97;1.92;;;15.10;99.90;;;;;;4975921;28;20042;-73
2022/06/29 01:17:23;;;;;;;5.07;1.83;;;15.10;99.90;;;;;;4958228;28;20060;-73
2022/06/29 01:19:49;;;;;;;3.53;1.90;;;15.10;99.90;;;;;;4966842;28;20108;-73
2022/06/29 01:22:20;;;;;;;3.85;1.83;;;15.00;99.90;;;;;;4975045;28;20049;-73
2022/06/29 01:24:46;;;;;;;5.03;2.40;;;15.00;99.90;;;;;;4975053;28;20405;-73
2022/06/29 01:27:14;;;;;;;4.25;1.95;;;15.00;99.90;;;;;;4973222;28;20050;-73
2022/06/29 01:29:40;;;;;;;5.20;2.13;;;15.00;99.90;;;;;;4976528;28;20042;-73
2022/06/29 01:32:06;;;;;;;3.92;1.98;;;15.00;99.90;;;;;;4971235;28;20073;-73
2022/06/29 01:34:33;;;;;;;4.25;2.33;;;14.90;99.90;;;;;;4974585;28;20042;-73
2022/06/29 01:37:00;;;;;;;4.13;2.10;;;14.90;99.90;;;;;;4975682;28;20661;-73
2022/06/29 01:39:26;;;;;;;3.55;2.05;;;14.90;99.90;;;;;;4971124;28;20054;-73
2022/06/29 01:41:52;;;;;;;2.60;2.05;;;14.90;99.90;;;;;;4969598;28;20061;-73
2022/06/29 01:44:19;;;;;;;4.60;2.30;;;14.90;99.90;;;;;;4955719;28;20377;-73
2022/06/29 01:46:45;;;;;;;4.47;2.28;;;14.80;99.90;;;;;;4975832;28;20035;-73
2022/06/29 01:49:11;;;;;;;3.30;2.08;;;14.80;99.90;;;;;;4977277;28;20050;-73
2022/06/29 01:51:36;;;;;;;3.85;2.25;;;14.80;99.90;;;;;;4974826;28;20042;-73
2022/06/29 01:54:02;;;;;;;4.38;2.45;;;14.80;99.90;;;;;;4975537;28;20109;-73
2022/06/29 01:56:28;;;;;;;5.47;2.30;;;14.70;99.90;;;;;;4974299;28;20074;-73
2022/06/29 01:58:54;;;;;;;4.40;2.25;;;14.70;99.90;;;;;;4965077;28;20051;-73
2022/06/29 02:01:19;;;;;;;5.55;2.33;;;14.80;99.90;;;;;;4961072;28;20057;-73
2022/06/29 02:03:45;;;;;;;5.38;2.30;;;14.80;99.90;;;;;;4975757;28;20138;-73
2022/06/29 02:06:11;;;;;;;4.53;2.13;;;14.80;99.90;;;;;;4974770;28;20133;-73
2022/06/29 02:08:37;;;;;;;3.90;2.08;;;14.80;99.90;;;;;;4974154;28;20042;-73
2022/06/29 02:11:03;;;;;;;5.22;2.45;;;14.80;99.90;;;;;;4957517;28;20059;-73
2022/06/29 02:13:29;;;;;;;2.20;1.63;;;14.80;99.90;;;;;;4957253;28;20745;-73
2022/06/29 02:15:55;;;;;;;2.45;1.75;;;14.90;99.90;;;;;;4973887;28;20498;-73
2022/06/29 02:18:21;;;;;;;3.67;2.38;;;14.90;99.90;;;;;;4973418;28;20039;-73
2022/06/29 02:20:47;;;;;;;7.97;3.05;;;14.90;99.90;;;;;;4975488;28;20039;-73
2022/06/29 02:23:13;;;;;;;5.35;2.38;;;15.00;99.90;;;;;;4973336;28;20141;-73
2022/06/29 02:25:39;;;;;;;3.50;2.20;;;14.90;99.90;;;;;;4975368;28;20075;-73
2022/06/29 02:28:05;;;;;;;4.88;2.40;;;15.00;99.90;;;;;;4971729;28;20478;-72
2022/06/29 02:36:00;;;;;;;4.50;2.20;;;15.10;99.90;;;;;;4972871;28;19924;-73
2022/06/29 02:38:26;;;;;;;5.43;2.05;;;15.10;99.90;;;;;;4973561;28;20071;-73
2022/06/29 02:40:51;;;;;;;3.70;2.42;;;15.10;99.90;;;;;;4961211;28;20149;-73
2022/06/29 02:43:17;;;;;;;4.38;2.15;;;15.10;99.90;;;;;;4974766;28;20054;-73
2022/06/29 02:45:43;;;;;;;4.50;2.28;;;15.10;99.90;;;;;;4975828;28;20042;-73
2022/06/29 02:48:09;;;;;;;3.35;1.92;;;15.20;99.90;;;;;;4973507;28;20039;-73
2022/06/29 02:50:34;;;;;;;4.32;2.60;;;15.20;99.90;;;;;;4974568;28;20086;-73
2022/06/29 02:53:01;;;;;;;5.30;2.53;;;15.20;99.90;;;;;;4956122;28;20550;-73
2022/06/29 02:55:26;;;;;;;3.30;2.30;;;15.20;99.90;;;;;;4973396;28;20048;-73
2022/06/29 02:57:52;;;;;;;3.63;2.30;;;15.20;99.90;;;;;;4972593;28;20117;-73
2022/06/29 03:00:18;;;;;;;5.10;2.97;;;15.20;99.90;;;;;;4973396;28;20039;-73
2022/06/29 03:02:44;;;;;;;4.25;2.85;;;15.10;99.90;;;;;;4973548;28;20034;-73
2022/06/29 03:05:10;;;;;;;5.43;2.83;;;15.10;99.90;;;;;;4975862;28;20114;-73
2022/06/29 03:07:35;;;;;;;6.18;2.88;;;15.10;99.90;;;;;;4973959;28;20051;-73
2022/06/29 03:10:01;;;;;;;4.68;2.70;;;15.10;99.90;;;;;;4974749;28;20109;-73
2022/06/29 03:12:27;;;;;;;5.75;2.67;;;15.10;99.90;;;;;;4974342;28;20073;-73
2022/06/29 03:14:53;;;;;;;4.18;2.90;;;15.10;99.90;;;;;;4972176;28;20130;-73
2022/06/29 03:17:19;;;;;;;6.20;3.40;;;15.00;99.90;;;;;;4971722;28;20125;-73
2022/06/29 03:19:44;;;;;;;8.25;2.85;;;15.00;99.90;;;;;;4957114;28;20121;-73
2022/06/29 03:22:10;;;;;;;5.22;3.22;;;15.00;99.90;;;;;;4972490;28;20043;-73
2022/06/29 03:24:36;;;;;;;6.43;3.20;;;14.90;99.90;;;;;;4975563;28;20628;-73
2022/06/29 03:27:02;;;;;;;7.80;2.83;;;14.90;99.90;;;;;;4956717;28;20396;-73
2022/06/29 03:29:27;;;;;;;5.38;3.00;;;14.90;99.90;;;;;;4976173;28;20050;-73
2022/06/29 03:31:53;;;;;;;4.43;3.33;;;14.90;99.90;;;;;;4972816;28;20133;-73
2022/06/29 03:34:19;;;;;;;3.72;2.83;;;14.80;99.90;;;;;;4954043;28;20050;-73
2022/06/29 03:36:44;;;;;;;4.20;2.97;;;14.80;99.90;;;;;;4974513;28;20165;-73
2022/06/29 03:39:10;;;;;;;5.30;3.42;;;14.80;99.90;;;;;;4973114;28;20064;-73
2022/06/29 03:41:36;;;;;;;4.50;3.50;;;14.70;99.90;;;;;;4974797;28;20109;-73
2022/06/29 03:44:02;;;;;;;3.80;3.22;;;14.70;99.90;;;;;;4970788;28;20039;-73
2022/06/29 03:46:28;;;;;;;5.40;3.30;;;14.70;99.90;;;;;;4962839;28;20545;-73
2022/06/29 03:48:54;;;;;;;10.13;3.65;;;14.70;99.90;;;;;;4971781;28;20050;-73
2022/06/29 03:51:19;;;;;;;5.90;3.53;;;14.70;99.90;;;;;;4971189;28;20100;-73
2022/06/29 03:53:45;;;;;;;3.80;3.47;;;14.60;99.90;;;;;;4972132;28;20042;-73
2022/06/29 03:56:11;;;;;;;5.10;3.22;;;14.60;99.90;;;;;;4958614;28;20151;-72
2022/06/29 03:58:37;;;;;;;5.03;3.17;;;14.60;99.90;;;;;;4970122;28;20050;-72
2022/06/29 04:01:03;;;;;;;6.75;3.38;;;14.60;99.90;;;;;;4972345;28;20053;-72
2022/06/29 04:03:29;;;;;;;5.32;3.22;;;14.60;99.90;;;;;;4970317;28;20058;-72
2022/06/29 04:05:55;;;;;;;7.50;3.72;;;14.60;99.90;;;;;;4970763;28;20101;-72
2022/06/29 04:08:21;;;;;;;4.75;3.40;;;14.70;99.90;;;;;;4970695;28;20039;-72
2022/06/29 04:10:47;;;;;;;5.60;3.53;;;14.70;99.90;;;;;;4956355;28;20491;-72
2022/06/29 04:13:13;;;;;;;3.67;3.30;;;14.70;99.90;;;;;;4970385;28;20041;-72
2022/06/29 04:15:39;;;;;;;6.72;3.63;;;14.80;99.90;;;;;;4955023;28;20068;-72
2022/06/29 04:18:05;;;;;;;6.22;3.38;;;14.80;99.90;;;;;;4973095;28;20050;-72
2022/06/29 04:23:35;;;;;;;4.90;3.50;;;14.90;99.90;;;;;;4973022;28;20038;-72
2022/06/29 04:26:00;;;;;;;4.22;3.20;;;15.00;99.90;;;;;;4975757;28;20034;-72
2022/06/29 04:28:26;;;;;;;4.78;3.28;;;15.10;99.90;;;;;;4970491;28;20120;-73
2022/06/29 04:30:52;;;;;;;4.65;3.20;;;15.10;99.90;;;;;;4955239;28;20058;-72
2022/06/29 04:33:17;;;;;;;4.65;3.55;;;15.20;99.90;;;;;;4970624;28;20544;-73
2022/06/29 04:35:43;;;;;;;5.05;3.50;;;15.30;99.90;;;;;;4970893;28;20049;-73
2022/06/29 04:38:09;;;;;;;4.18;3.05;;;15.40;99.90;;;;;;4972451;28;20042;-72
2022/06/29 04:40:37;;;;;;;5.63;2.90;;;15.50;99.90;;;;;;4975175;28;20034;-73
2022/06/29 04:43:03;;;;;;;6.07;3.30;;;15.50;99.90;;;;;;4962321;28;20064;-72
2022/06/29 04:48:13;;;;;;;2.97;2.67;;;15.70;99.90;;;;;;4971172;28;20046;-72
2022/06/29 04:50:38;;;;;;;4.53;3.08;;;15.70;99.90;;;;;;4959670;28;20042;-72
2022/06/29 04:53:04;;;;;;;3.33;3.03;;;15.90;99.90;;;;;;4974131;28;20116;-71
2022/06/29 04:55:30;;;;;;;3.63;2.60;;;16.00;99.90;;;;;;4949469;28;20094;-71
2022/06/29 04:57:56;;;;;;;3.75;3.30;;;16.10;99.90;;;;;;4973805;28;20046;-71
2022/06/29 05:00:21;;;;;;;4.68;2.95;;;16.20;99.90;;;;;;4974618;28;20046;-71
2022/06/29 05:02:47;;;;;;;5.15;2.97;;;16.40;99.90;;;;;;4973808;28;20029;-71
2022/06/29 05:05:13;;;;;;;5.57;2.92;;;16.50;99.90;;;;;;4961596;28;20090;-71
2022/06/29 05:07:38;;;;;;;4.22;2.83;;;16.70;99.90;;;;;;4973619;28;20096;-72
2022/06/29 05:10:05;;;;;;;8.05;3.00;;;16.80;99.90;;;;;;4971356;28;20042;-72
2022/06/29 05:12:30;;;;;;;5.68;3.17;;;17.10;99.90;;;;;;4991488;28;20038;-72
2022/06/29 05:14:56;;;;;;;3.17;2.88;;;17.20;99.90;;;;;;4973838;28;20108;-72
2022/06/29 05:17:21;;;;;;;5.90;3.00;;;17.20;99.90;;;;;;4969720;28;20042;-72
2022/06/29 05:19:47;;;;;;;3.90;2.45;;;17.10;99.90;;;;;;4978723;28;20042;-71
2022/06/29 05:22:13;;;;;;;5.10;3.35;;;17.10;99.90;;;;;;4980405;28;20042;-71
2022/06/29 05:24:38;;;;;;;5.55;4.45;;;17.20;99.90;;;;;;4979991;28;20042;-72
2022/06/29 05:27:05;;;;;;;4.93;3.17;;;17.20;99.90;;;;;;4979000;28;20195;-72
2022/06/29 05:29:31;;;;;;;4.63;2.78;;;17.30;99.90;;;;;;4983926;28;20077;-72
2022/06/29 05:31:57;;;;;;;6.20;3.08;;;17.40;99.90;;;;;;4991474;28;20133;-73
2022/06/29 05:34:22;;;;;;;3.78;2.85;;;17.50;99.90;;;;;;4982348;28;20426;-72
2022/06/29 05:36:48;;;;;;;4.50;2.85;;;17.50;99.90;;;;;;4979514;28;20138;-72
2022/06/29 05:39:14;;;;;;;4.47;2.70;;;17.60;99.90;;;;;;4986361;28;20089;-72
2022/06/29 05:41:40;;;;;;;4.95;2.88;;;17.60;99.90;;;;;;4977554;28;20089;-72
2022/06/29 05:44:05;;;;;;;4.40;2.78;;;17.70;99.90;;;;;;4963293;28;20058;-72
2022/06/29 05:46:32;;;;;;;4.35;2.33;;;17.80;99.90;;;;;;4979742;28;20038;-71
2022/06/29 05:48:58;;;;;;;4.10;2.67;;;17.90;99.90;;;;;;4978986;28;20050;-71
2022/06/29 05:51:24;;;;;;;3.15;2.53;;;17.90;99.90;;;;;;4963072;28;20398;-72
2022/06/29 05:53:50;;;;;;;5.55;2.60;;;18.00;99.90;;;;;;4981409;28;20121;-72
2022/06/29 05:56:16;;;;;;;3.00;2.55;;;18.00;99.90;;;;;;4980145;28;20050;-73
2022/06/29 05:58:42;;;;;;;4.45;2.45;;;18.10;99.90;;;;;;4977258;28;20108;-72
2022/06/29 06:01:09;;;;;;;3.60;2.45;;;18.10;99.90;;;;;;4990321;28;20050;-72
2022/06/29 06:03:36;;;;;;;5.72;3.10;;;18.20;99.90;;;;;;4985240;28;21237;-72
2022/06/29 06:06:02;;;;;;;3.65;2.75;;;18.30;99.90;;;;;;4964305;28;20050;-72
2022/06/29 06:08:28;;;;;;;4.15;2.70;;;18.40;99.90;;;;;;4972399;28;20046;-71
2022/06/29 06:10:53;;;;;;;4.85;2.47;;;18.50;99.90;;;;;;4977807;28;20773;-71
2022/06/29 06:13:19;;;;;;;3.17;2.30;;;18.70;99.90;;;;;;4968625;28;20065;-71
2022/06/29 06:15:46;;;;;;;5.55;2.85;;;18.70;99.90;;;;;;4980072;28;20069;-72
2022/06/29 06:18:12;;;;;;;3.45;2.60;;;18.80;99.90;;;;;;4980072;28;20410;-70
2022/06/29 06:20:38;;;;;;;3.55;2.22;;;18.90;99.90;;;;;;4963030;28;20054;-72
2022/06/29 06:23:03;;;;;;;6.03;3.22;;;19.00;99.90;;;;;;4982856;28;20069;-70
2022/06/29 06:25:30;;;;;;;5.18;2.50;;;19.00;99.90;;;;;;4979577;28;20053;-71
2022/06/29 06:27:55;;;;;;;4.85;2.72;;;19.00;99.90;;;;;;4962144;28;20489;-71
2022/06/29 06:30:21;;;;;;;4.45;2.58;;;19.10;99.90;;;;;;4978131;28;20086;-71
2022/06/29 06:32:47;;;;;;;6.78;2.50;;;19.20;99.90;;;;;;4965045;28;20549;-71
2022/06/29 06:35:12;;;;;;;5.35;2.00;;;19.40;99.90;;;;;;4976587;28;20061;-71
2022/06/29 06:37:38;;;;;;;3.35;2.10;;;19.40;99.90;;;;;;4968868;28;20047;-71
2022/06/29 06:42:49;;;;;;;3.80;1.70;;;19.80;99.90;;;;;;4973073;28;20500;-72
2022/06/29 06:45:15;;;;;;;6.15;2.38;;;19.90;99.90;;;;;;4972853;28;20076;-72
2022/06/29 06:47:40;;;;;;;4.43;2.35;;;20.00;99.90;;;;;;4972262;28;20046;-71
2022/06/29 06:50:07;;;;;;;4.85;2.08;;;20.20;99.90;;;;;;4961555;28;20042;-70
2022/06/29 06:52:32;;;;;;;2.92;1.73;;;20.30;99.90;;;;;;4958258;28;20046;-70
2022/06/29 06:54:58;;;;;;;3.35;1.70;;;20.40;99.90;;;;;;4972935;28;20130;-70
2022/06/29 06:57:24;;;;;;;3.83;1.70;;;20.50;99.90;;;;;;4971963;28;20513;-71
2022/06/29 06:59:53;;;;;;;5.68;1.80;;;20.60;99.90;;;;;;4972787;28;20086;-70
2022/06/29 07:02:22;;;;;;;3.75;1.60;;;20.80;99.20;;;;;;4972006;28;20082;-70
2022/06/29 07:04:48;;;;;;;3.72;1.30;;;20.90;99.00;;;;;;4972405;28;20046;-71
2022/06/29 07:07:14;;;;;;;4.07;1.60;;;21.00;97.40;;;;;;4958938;28;20078;-71
2022/06/29 07:09:40;;;;;;;3.10;1.50;;;21.10;97.00;;;;;;4972030;28;20043;-71
2022/06/29 07:12:06;;;;;;;1.98;1.23;;;21.20;96.20;;;;;;4971789;28;20109;-71
2022/06/29 07:14:32;;;;;;;2.20;1.15;;;21.40;95.70;;;;;;4973113;28;20050;-71
2022/06/29 07:16:58;;;;;;;3.28;1.30;;;21.50;95.70;;;;;;4971844;28;20055;-70
2022/06/29 07:19:23;;;;;;;2.80;1.40;;;21.70;94.20;;;;;;4972814;28;20058;-71
2022/06/29 07:21:49;;;;;;;4.35;1.27;;;21.70;93.90;;;;;;4971677;28;20498;-71
2022/06/29 07:24:15;;;;;;;5.88;1.77;;;21.80;94.40;;;;;;4972627;28;20076;-70
2022/06/29 07:26:41;;;;;;;1.90;1.17;;;22.00;94.00;;;;;;4956251;28;20082;-71
2022/06/29 07:29:06;;;;;;;3.65;1.38;;;22.10;94.40;;;;;;4975107;28;20077;-71
2022/06/29 07:31:32;;;;;;;3.58;1.40;;;22.20;92.90;;;;;;4971612;28;20387;-71
2022/06/29 07:33:58;;;;;;;3.08;1.20;;;22.30;92.10;;;;;;4972259;28;20042;-71
2022/06/29 07:36:25;;;;;;;2.45;1.00;;;22.40;91.10;;;;;;4972041;28;20505;-71
2022/06/29 07:38:52;;;;;;;3.63;1.30;;;22.40;91.80;;;;;;4970732;28;20047;-71
2022/06/29 07:41:18;;;;;;;3.55;1.00;;;22.50;91.00;;;;;;4961920;28;20461;-71
2022/06/29 07:43:44;;;;;;;3.97;1.27;;;22.60;91.00;;;;;;4954728;28;20141;-71
2022/06/29 07:46:10;;;;;;;1.95;1.10;;;22.80;88.30;;;;;;4972037;28;20055;-73
2022/06/29 07:48:36;;;;;;;1.98;0.90;;;22.90;88.50;;;;;;4957483;28;20047;-71
2022/06/29 07:51:01;;;;;;;2.45;0.95;;;23.00;87.80;;;;;;4972014;28;20069;-71
2022/06/29 07:53:27;;;;;;;2.55;0.90;;;23.10;86.10;;;;;;4974316;28;20051;-71
2022/06/29 07:55:53;;;;;;;4.07;1.10;;;23.20;85.50;;;;;;4954830;28;20523;-72
2022/06/29 07:58:19;;;;;;;2.92;1.02;;;23.30;86.40;;;;;;4970123;28;20129;-70
2022/06/29 08:00:45;;;;;;;1.20;0.77;;;23.50;85.80;;;;;;4971499;28;20082;-71
2022/06/29 08:03:10;;;;;;;3.00;0.80;;;23.80;82.50;;;;;;4962830;28;20395;-71
2022/06/29 08:05:37;;;;;;;4.72;1.00;;;23.90;81.50;;;;;;4956186;28;20058;-71
2022/06/29 08:08:03;;;;;;;3.97;1.00;;;24.00;81.20;;;;;;4971098;28;20050;-72
2022/06/29 08:10:31;;;;;;;4.30;1.00;;;24.10;79.60;;;;;;4971776;28;20077;-72
2022/06/29 08:12:57;;;;;;;2.85;0.88;;;24.20;80.50;;;;;;4952909;28;20054;-72
2022/06/29 08:15:23;;;;;;;1.38;0.63;;;24.30;79.70;;;;;;4971378;28;20062;-71
2022/06/29 08:17:49;;;;;;;2.95;1.02;;;24.40;75.40;;;;;;4971626;28;20387;-72
2022/06/29 08:20:15;;;;;;;1.27;0.70;;;24.40;75.90;;;;;;4955554;28;20051;-71
2022/06/29 08:22:41;;;;;;;2.60;0.90;;;24.50;73.20;;;;;;4972041;28;20828;-72
2022/06/29 08:25:08;;;;;;;2.30;0.80;;;24.50;73.70;;;;;;4971707;28;20049;-72
2022/06/29 08:27:33;;;;;;;2.33;0.82;;;24.40;71.90;;;;;;4971138;28;20364;-72
2022/06/29 08:30:00;;;;;;;3.47;1.10;;;24.70;74.00;;;;;;4955629;28;20082;-72
2022/06/29 08:32:26;;;;;;;2.45;1.00;;;25.10;73.90;;;;;;4972927;28;20117;-72
2022/06/29 08:34:52;;;;;;;2.65;0.82;;;25.70;73.70;;;;;;4971105;28;20134;-72
2022/06/29 08:37:18;;;;;;;2.72;1.02;;;26.00;69.10;;;;;;4954713;28;20534;-73
2022/06/29 08:39:44;;;;;;;3.38;0.90;;;26.20;66.90;;;;;;4970828;28;20064;-73
2022/06/29 08:42:11;;;;;;;3.38;1.30;;;26.60;68.60;;;;;;4969818;28;20130;-72
2022/06/29 08:44:38;;;;;;;2.28;1.05;;;27.00;66.70;;;;;;4969100;28;20055;-72
2022/06/29 08:47:05;;;;;;;2.67;1.00;;;26.90;64.20;;;;;;4970007;28;20065;-72
2022/06/29 08:49:31;;;;;;;3.78;1.15;;;26.60;64.30;;;;;;4970688;28;20105;-73
2022/06/29 08:51:58;;;;;;;4.25;1.13;;;26.50;64.40;;;;;;4970583;28;20055;-73
2022/06/29 08:54:26;;;;;;;2.45;0.85;;;26.50;65.70;;;;;;4970224;28;20493;-73
2022/06/29 08:56:53;;;;;;;2.13;1.10;;;26.60;64.90;;;;;;4967519;28;20042;-73
2022/06/29 08:59:21;;;;;;;4.18;1.10;;;26.70;65.40;;;;;;4971133;28;20556;-69
2022/06/29 09:01:49;;;;;;;7.10;1.00;;;26.70;64.90;;;;;;4984038;28;20061;-69
2022/06/29 09:04:16;;;;;;;4.20;1.30;;;26.60;64.60;;;;;;4972126;28;20403;-69
2022/06/29 09:06:41;;;;;;;2.28;1.00;;;26.50;65.00;;;;;;4971132;28;20174;-69
2022/06/29 09:09:07;;;;;;;3.90;1.10;;;26.50;63.70;;;;;;4970097;28;20164;-70
2022/06/29 09:11:33;;;;;;;2.97;0.77;;;26.40;62.60;;;;;;4969815;28;20502;-70
2022/06/29 09:14:12;;;;;;;3.38;0.90;;;26.30;62.70;;;;;;4971120;28;20050;-70
2022/06/29 09:16:56;;;;;;;1.98;0.80;;;26.60;65.40;;;;;;4970045;28;20767;-69
2022/06/29 09:19:36;;;;;;;1.88;0.73;;;27.00;60.10;;;;;;4970517;28;20047;-70
2022/06/29 09:22:02;;;;;;;3.85;1.08;;;27.30;63.40;;;;;;4969653;28;20570;-70
2022/06/29 09:24:31;;;;;;;1.30;0.75;;;27.60;62.10;;;;;;4972021;28;20097;-70
2022/06/29 09:26:58;;;;;;;2.10;0.90;;;27.70;61.80;;;;;;4971195;28;20074;-70
2022/06/29 09:29:26;;;;;;;2.72;0.70;;;28.00;61.90;;;;;;4972221;28;20053;-70
2022/06/29 09:32:06;;;;;;;3.45;0.77;;;28.10;59.50;;;;;;4971764;28;20046;-70
2022/06/29 09:34:41;;;;;;;1.65;0.80;;;28.10;57.90;;;;;;4970124;28;20145;-70
2022/06/29 09:37:13;;;;;;;2.20;0.80;;;28.00;58.50;;;;;;4969869;28;20039;-70
2022/06/29 09:39:52;;;;;;;1.95;0.90;;;28.00;57.40;;;;;;4981654;28;20051;-69
2022/06/29 09:42:24;;;;;;;3.35;0.98;;;27.90;57.10;;;;;;4972497;28;20398;-69
2022/06/29 09:44:50;;;;;;;1.45;0.75;;;27.80;59.50;;;;;;4968774;28;20042;-69
2022/06/29 09:47:21;;;;;;;2.42;0.80;;;28.00;58.20;;;;;;4990908;28;20367;-70
2022/06/29 09:49:53;;;;;;;5.55;1.25;;;28.30;57.80;;;;;;4961686;28;20050;-70
2022/06/29 09:52:19;;;;;;;1.95;1.02;;;28.60;56.50;;;;;;4989957;28;20173;-71
2022/06/29 09:54:50;;;;;;;3.03;0.75;;;28.90;56.90;;;;;;4991646;28;20467;-70
2022/06/29 09:57:20;;;;;;;1.98;0.80;;;29.20;56.10;;;;;;4990039;28;20039;-69
2022/06/29 10:02:43;;;;;;;2.03;0.70;;;29.00;53.10;;;;;;4989920;28;20515;-69
2022/06/29 10:05:14;;;;;;;3.58;0.80;;;28.80;53.00;;;;;;4991284;28;20125;-68
2022/06/29 10:07:47;;;;;;;4.22;1.15;;;28.70;52.40;;;;;;4992295;28;20053;-65
2022/06/29 10:10:17;;;;;;;2.67;0.70;;;28.80;53.00;;;;;;4994463;28;20120;-66
2022/06/29 10:16:02;;;;;;;1.35;0.88;;;29.50;51.40;;;;;;4996555;28;20501;-66
2022/06/29 10:19:06;;;;;;;2.22;0.82;;;29.30;49.90;;;;;;4993558;28;20089;-66
2022/06/29 10:21:32;;;;;;;;;;;29.30;53.00;;;;;;4991947;28;20066;-66
2022/06/29 10:24:01;;;;;;;4.85;1.00;;;29.50;53.70;;;;;;4994136;28;19961;-66
2022/06/29 10:29:08;;;;;;;2.58;0.80;;;29.70;51.60;;;;;;4993520;28;20454;-66
2022/06/29 10:31:53;;;;;;;3.58;0.95;;;29.80;52.20;;;;;;4994100;28;20105;-66
2022/06/29 10:37:07;;;;;;;2.20;0.95;;;30.20;52.00;;;;;;4992884;28;20042;-66
2022/06/29 10:39:44;;;;;;;3.45;0.68;;;30.40;50.80;;;;;;4993552;28;20050;-66
2022/06/29 10:45:13;;;;;;;2.70;0.77;;;30.30;51.50;;;;;;4994258;28;20058;-66
2022/06/29 10:47:40;;;;;;;2.90;0.70;;;30.60;51.60;;;;;;4990900;28;20471;-66
2022/06/29 10:50:16;;;;;;;1.48;0.60;;;30.80;49.70;;;;;;4994029;28;20041;-66
2022/06/29 10:52:44;;;;;;;2.15;0.93;;;31.00;49.90;;;;;;4993071;28;20117;-67
2022/06/29 10:55:11;;;;;;;1.38;0.68;;;31.20;49.40;;;;;;4995105;28;20441;-66
2022/06/29 10:57:39;;;;;;;1.45;1.10;;;31.50;49.80;;;;;;4992543;28;20049;-67
2022/06/29 11:00:10;;;;;;;3.90;0.90;;;31.70;49.30;;;;;;4991208;28;20060;-67
2022/06/29 11:02:36;;;;;;;1.40;0.80;;;31.80;47.10;;;;;;4992223;28;20112;-66
2022/06/29 11:05:02;;;;;;;0.70;0.43;;;31.70;47.70;;;;;;4994199;28;20042;-66
2022/06/29 11:12:58;;;;;;;3.78;0.85;;;32.00;43.40;;;;;;4991882;28;20053;-66
2022/06/29 11:15:41;;;;;;;1.58;0.98;;;32.00;45.50;;;;;;4972799;28;20436;-66
2022/06/29 11:18:28;;;;;;;3.80;0.90;;;32.00;44.70;;;;;;4992516;28;20046;-66
2022/06/29 11:20:54;;;;;;;2.38;0.80;;;31.50;46.80;;;;;;4993570;28;20054;-66
2022/06/29 11:23:29;;;;;;;2.65;1.10;;;31.00;47.90;;;;;;4993782;28;20493;-66
2022/06/29 11:25:56;;;;;;;2.15;1.00;;;30.60;47.80;;;;;;4993834;28;20053;-66
2022/06/29 11:28:25;;;;;;;2.03;1.20;;;30.10;48.00;;;;;;4992690;28;20165;-66
2022/06/29 11:31:10;;;;;;;3.33;1.10;;;29.70;48.80;;;;;;4991925;28;20070;-66
2022/06/29 11:33:42;;;;;;;4.30;1.25;;;29.60;51.80;;;;;;4993198;28;20074;-66
2022/06/29 11:36:14;;;;;;;3.13;1.25;;;29.40;51.90;;;;;;4993562;28;20050;-66
2022/06/29 11:38:42;;;;;;;3.30;1.30;;;29.20;53.30;;;;;;4975906;28;20593;-66
2022/06/29 11:41:12;;;;;;;3.60;1.30;;;29.10;52.90;;;;;;4993383;28;20626;-66
2022/06/29 11:43:38;;;;;;;2.70;1.40;;;29.10;53.30;;;;;;4991880;28;20065;-66
2022/06/29 11:46:03;;;;;;;2.33;1.42;;;29.00;52.90;;;;;;4993186;28;20046;-66
2022/06/29 11:48:31;;;;;;;2.83;1.30;;;28.90;52.30;;;;;;4993009;28;20061;-66
2022/06/29 11:50:59;;;;;;;1.88;1.55;;;29.10;54.00;;;;;;4993129;28;20042;-66
2022/06/29 11:53:48;;;;;;;2.88;1.50;;;29.50;53.70;;;;;;4993299;28;20046;-66
2022/06/29 11:56:19;;;;;;;3.70;1.42;;;29.70;51.30;;;;;;4993275;28;20513;-67
2022/06/29 11:58:49;;;;;;;2.10;1.30;;;29.80;52.60;;;;;;4992313;28;20057;-67
2022/06/29 12:01:20;;;;;;;2.05;1.42;;;30.00;51.50;;;;;;4992483;28;20053;-67
2022/06/29 12:03:50;;;;;;;3.20;1.55;;;30.30;50.70;;;;;;4991258;28;20482;-67
2022/06/29 12:06:16;;;;;;;1.90;1.50;;;30.50;50.90;;;;;;4994521;28;20486;-67
2022/06/29 12:08:42;;;;;;;3.42;1.20;;;30.80;50.40;;;;;;4993194;28;20041;-67
2022/06/29 12:11:08;;;;;;;4.72;1.55;;;31.00;50.90;;;;;;4992601;28;20089;-67
2022/06/29 12:13:33;;;;;;;2.05;1.70;;;31.10;48.80;;;;;;4991429;28;20042;-67
2022/06/29 12:15:59;;;;;;;3.30;1.60;;;31.20;49.90;;;;;;4973861;28;20132;-66
2022/06/29 12:18:25;;;;;;;2.47;1.58;;;31.20;49.60;;;;;;4991471;28;20038;-66
2022/06/29 12:20:51;;;;;;;2.45;1.40;;;31.10;50.60;;;;;;4991378;28;20030;-66
2022/06/29 12:23:17;;;;;;;2.28;1.40;;;31.10;51.30;;;;;;4991133;28;20120;-66
2022/06/29 12:25:43;;;;;;;3.53;1.73;;;31.00;51.30;;;;;;4991771;28;20084;-66
2022/06/29 12:28:09;;;;;;;6.28;1.42;;;30.90;52.40;;;;;;4990072;28;20038;-66
2022/06/29 12:30:35;;;;;;;2.08;1.65;;;30.90;51.80;;;;;;4991795;28;20080;-66
2022/06/29 12:33:02;;;;;;;2.58;1.70;;;31.20;52.30;;;;;;4988725;28;20049;-66
2022/06/29 12:35:28;;;;;;;2.30;1.58;;;31.50;51.60;;;;;;4991407;28;20038;-66
2022/06/29 12:37:57;;;;;;;5.00;1.65;;;31.70;50.50;;;;;;4990911;28;20525;-67
2022/06/29 12:40:26;;;;;;;3.15;1.77;;;31.70;50.60;;;;;;4991169;28;20085;-66
2022/06/29 12:42:53;;;;;;;4.88;1.58;;;31.50;48.60;;;;;;4972946;28;20451;-66
2022/06/29 12:45:19;;;;;;;3.15;1.70;;;31.20;47.60;;;;;;4973946;28;20066;-66
2022/06/29 12:47:45;;;;;;;3.20;1.52;;;31.10;49.10;;;;;;4980820;28;20133;-66
2022/06/29 12:50:11;;;;;;;3.33;1.92;;;31.10;49.80;;;;;;4991440;28;20404;-66
2022/06/29 12:52:40;;;;;;;2.03;1.83;;;31.10;50.80;;;;;;4990199;28;20054;-66
2022/06/29 12:55:09;;;;;;;3.45;1.60;;;31.30;50.40;;;;;;4991227;28;20049;-66
2022/06/29 12:57:35;;;;;;;3.13;1.80;;;31.30;48.50;;;;;;4989955;28;20034;-67
2022/06/29 13:00:01;;;;;;;3.55;1.60;;;31.10;49.30;;;;;;4991515;28;20057;-66
2022/06/29 13:02:29;;;;;;;2.45;1.60;;;31.10;49.50;;;;;;4990080;28;20053;-66
2022/06/29 13:04:54;;;;;;;3.00;1.45;;;31.00;50.10;;;;;;4990737;28;20051;-66
2022/06/29 13:07:24;;;;;;;1.83;1.27;;;31.10;52.40;;;;;;4973623;28;20137;-67
2022/06/29 13:09:49;;;;;;;3.30;1.60;;;31.20;50.70;;;;;;4991922;28;20053;-67
2022/06/29 13:12:15;;;;;;;3.60;1.85;;;31.40;52.30;;;;;;4990949;28;20434;-67
2022/06/29 13:14:41;;;;;;;3.03;1.80;;;31.50;51.20;;;;;;4991805;28;20513;-67
2022/06/29 13:17:06;;;;;;;5.50;1.85;;;31.50;49.10;;;;;;4991652;28;20030;-66
2022/06/29 13:19:32;;;;;;;4.30;1.77;;;31.50;49.80;;;;;;4991797;28;20367;-66
2022/06/29 13:21:57;;;;;;;3.70;1.70;;;31.30;50.10;;;;;;4991388;28;20868;-66